createdAt,value
2022-11-25T00:01:22.565Z,101170.88
2022-11-25T00:03:50.028Z,101167.34
2022-11-25T00:06:20.536Z,101170.88
2022-11-25T00:08:49.577Z,101160.66
2022-11-25T00:11:17.291Z,101163.53
2022-11-25T00:13:45.015Z,101155.31
2022-11-25T00:16:14.847Z,101156.72
2022-11-25T00:18:45.109Z,101151.13
2022-11-25T00:21:15.212Z,101157.09
2022-11-25T00:23:42.061Z,101149.53
2022-11-25T00:26:13.891Z,101135.41
2022-11-25T00:28:45.421Z,101138.25
2022-11-25T00:31:18.833Z,101143.13
2022-11-25T00:33:46.000Z,101151.03
2022-11-25T00:36:21.798Z,101152.22
2022-11-25T00:38:48.436Z,101148.41
2022-11-25T00:41:33.393Z,101148.09
2022-11-25T00:44:18.244Z,101145.94
2022-11-25T00:46:44.763Z,101145.44
2022-11-25T00:49:11.348Z,101135.53
2022-11-25T00:51:37.932Z,101138.22
2022-11-25T00:54:04.680Z,101139.41
2022-11-25T00:56:31.174Z,101140.06
2022-11-25T00:58:57.845Z,101128.28
2022-11-25T01:01:25.011Z,101132.66
2022-11-25T01:03:52.995Z,101129.94
2022-11-25T01:06:19.863Z,101134.97
2022-11-25T01:08:46.376Z,101128.38
2022-11-25T01:11:15.000Z,101129.06
2022-11-25T01:13:42.098Z,101140.66
2022-11-25T01:16:15.857Z,101140.00
2022-11-25T01:18:43.230Z,101124.19
2022-11-25T01:21:13.665Z,101131.25
2022-11-25T01:23:41.309Z,101130.25
2022-11-25T01:26:13.436Z,101131.56
2022-11-25T01:28:40.244Z,101133.78
2022-11-25T01:31:12.919Z,101139.00
2022-11-25T01:33:39.537Z,101128.69
2022-11-25T01:36:09.146Z,101127.47
2022-11-25T01:38:36.204Z,101124.78
2022-11-25T01:41:05.693Z,101133.06
2022-11-25T01:43:32.246Z,101133.91
2022-11-25T01:46:04.495Z,101135.94
2022-11-25T01:48:57.252Z,101143.06
2022-11-25T01:51:34.982Z,101145.09
2022-11-25T01:54:06.482Z,101146.47
2022-11-25T01:56:41.391Z,101146.84
2022-11-25T01:59:07.941Z,101138.44
2022-11-25T02:01:34.877Z,101150.91
2022-11-25T02:04:02.180Z,101144.50
2022-11-25T02:06:38.936Z,101142.28
2022-11-25T02:09:07.999Z,101142.63
2022-11-25T02:11:39.057Z,101144.84
2022-11-25T02:14:06.944Z,101141.84
2022-11-25T02:16:33.615Z,101131.78
2022-11-25T02:19:00.841Z,101123.72
2022-11-25T02:21:45.367Z,101130.28
2022-11-25T02:24:43.211Z,101128.78
2022-11-25T02:27:09.752Z,101135.22
2022-11-25T02:29:37.439Z,101131.03
2022-11-25T02:32:04.272Z,101131.03
2022-11-25T02:34:30.862Z,101136.41
2022-11-25T02:36:57.917Z,101130.53
2022-11-25T02:39:24.700Z,101129.53
2022-11-25T02:41:55.355Z,101124.28
2022-11-25T02:44:21.863Z,101132.56
2022-11-25T02:46:48.412Z,101130.72
2022-11-25T02:49:14.904Z,101127.16
2022-11-25T02:51:44.817Z,101127.34
2022-11-25T02:54:15.931Z,101129.22
2022-11-25T02:56:43.379Z,101131.34
2022-11-25T02:59:11.202Z,101128.84
2022-11-25T03:01:38.634Z,101125.03
2022-11-25T03:04:05.912Z,101125.84
2022-11-25T03:06:32.956Z,101127.53
2022-11-25T03:08:59.484Z,101126.53
2022-11-25T03:11:46.034Z,101132.25
2022-11-25T03:14:12.704Z,101122.16
2022-11-25T03:16:39.399Z,101119.47
2022-11-25T03:19:06.100Z,101122.63
2022-11-25T03:21:32.689Z,101123.84
2022-11-25T03:23:59.179Z,101124.16
2022-11-25T03:26:27.270Z,101129.75
2022-11-25T03:28:53.750Z,101118.28
2022-11-25T03:31:20.343Z,101123.69
2022-11-25T03:33:46.921Z,101127.88
2022-11-25T03:36:13.440Z,101125.84
2022-11-25T03:38:40.042Z,101122.66
2022-11-25T03:41:06.970Z,101122.84
2022-11-25T03:43:35.542Z,101141.69
2022-11-25T03:46:02.256Z,101137.69
2022-11-25T03:48:28.865Z,101130.97
2022-11-25T03:50:55.731Z,101129.31
2022-11-25T03:53:22.253Z,101126.94
2022-11-25T03:55:48.751Z,101128.00
2022-11-25T03:58:15.284Z,101122.75
2022-11-25T04:00:41.780Z,101111.34
2022-11-25T04:03:08.398Z,101113.19
2022-11-25T04:05:35.012Z,101110.16
2022-11-25T04:08:01.603Z,101113.47
2022-11-25T04:10:28.124Z,101109.78
2022-11-25T04:12:54.889Z,101117.03
2022-11-25T04:15:21.739Z,101117.22
2022-11-25T04:17:48.375Z,101111.84
2022-11-25T04:20:15.550Z,101115.16
2022-11-25T04:22:42.568Z,101117.84
2022-11-25T04:25:09.872Z,101104.75
2022-11-25T04:27:36.585Z,101106.09
2022-11-25T04:30:03.670Z,101105.91
2022-11-25T04:32:30.240Z,101108.59
2022-11-25T04:34:56.779Z,101110.09
2022-11-25T04:37:23.366Z,101111.09
2022-11-25T04:39:50.131Z,101097.81
2022-11-25T04:42:31.748Z,101103.22
2022-11-25T04:45:22.093Z,101109.91
2022-11-25T04:47:48.964Z,101106.69
2022-11-25T04:50:18.764Z,101110.53
2022-11-25T04:52:45.356Z,101101.81
2022-11-25T04:55:11.944Z,101095.56
2022-11-25T04:57:38.488Z,101094.56
2022-11-25T05:00:06.465Z,101101.75
2022-11-25T05:02:33.145Z,101101.56
2022-11-25T05:04:59.716Z,101115.00
2022-11-25T05:07:28.032Z,101111.88
2022-11-25T05:09:55.057Z,101107.69
2022-11-25T05:12:24.469Z,101120.59
2022-11-25T05:14:51.096Z,101117.06
2022-11-25T05:17:20.305Z,101119.28
2022-11-25T05:19:47.176Z,101129.22
2022-11-25T05:22:16.301Z,101133.75
2022-11-25T05:24:43.214Z,101136.25
2022-11-25T05:27:10.298Z,101146.38
2022-11-25T05:29:37.928Z,101133.94
2022-11-25T05:32:05.900Z,101143.00
2022-11-25T05:34:32.431Z,101140.13
2022-11-25T05:36:58.962Z,101138.91
2022-11-25T05:39:25.942Z,101140.94
2022-11-25T05:41:52.702Z,101136.41
2022-11-25T05:44:22.861Z,101134.34
2022-11-25T05:46:49.711Z,101135.84
2022-11-25T05:49:17.596Z,101132.47
2022-11-25T05:51:44.806Z,101130.44
2022-11-25T05:54:11.501Z,101122.66
2022-11-25T05:56:38.351Z,101120.59
2022-11-25T05:59:05.515Z,101117.38
2022-11-25T06:01:34.765Z,101109.41
2022-11-25T06:04:03.034Z,101113.41
2022-11-25T06:06:30.633Z,101107.69
2022-11-25T06:08:57.206Z,101115.56
2022-11-25T06:11:25.496Z,101110.66
2022-11-25T06:13:52.190Z,101117.38
2022-11-25T06:16:21.587Z,101123.88
2022-11-25T06:18:48.529Z,101120.34
2022-11-25T06:21:16.780Z,101118.13
2022-11-25T06:23:45.581Z,101115.75
2022-11-25T06:26:22.539Z,101123.44
2022-11-25T06:28:53.582Z,101113.97
2022-11-25T06:31:23.657Z,101115.31
2022-11-25T06:33:51.814Z,101121.13
2022-11-25T06:36:20.465Z,101124.69
2022-11-25T06:38:49.761Z,101127.88
2022-11-25T06:41:16.699Z,101126.19
2022-11-25T06:43:43.466Z,101125.63
2022-11-25T06:46:23.023Z,101133.72
2022-11-25T06:48:51.360Z,101136.59
2022-11-25T06:51:18.230Z,101137.44
2022-11-25T06:53:45.962Z,101147.38
2022-11-25T06:56:15.648Z,101148.41
2022-11-25T06:58:43.397Z,101148.41
2022-11-25T07:01:22.557Z,101144.88
2022-11-25T07:03:52.883Z,101149.88
2022-11-25T07:06:21.060Z,101148.06
2022-11-25T07:08:48.578Z,101150.75
2022-11-25T07:11:19.348Z,101156.16
2022-11-25T07:13:46.594Z,101150.56
2022-11-25T07:16:13.865Z,101143.13
2022-11-25T07:18:41.251Z,101146.66
2022-11-25T07:21:13.049Z,101144.63
2022-11-25T07:23:40.252Z,101140.06
2022-11-25T07:26:10.811Z,101143.88
2022-11-25T07:28:38.132Z,101154.31
2022-11-25T07:31:32.834Z,101161.47
2022-11-25T07:34:03.346Z,101173.09
2022-11-25T07:36:31.850Z,101177.66
2022-11-25T07:39:00.885Z,101177.84
2022-11-25T07:41:28.489Z,101182.22
2022-11-25T07:44:00.287Z,101176.81
2022-11-25T07:46:38.645Z,101178.50
2022-11-25T07:49:08.444Z,101183.53
2022-11-25T07:51:40.574Z,101182.34
2022-11-25T07:54:10.988Z,101183.97
2022-11-25T07:56:39.468Z,101186.69
2022-11-25T07:59:07.700Z,101192.94
2022-11-25T08:01:36.329Z,101190.88
2022-11-25T08:04:02.980Z,101192.56
2022-11-25T08:06:30.243Z,101184.94
2022-11-25T08:08:58.302Z,101189.13
2022-11-25T08:11:30.294Z,101187.25
2022-11-25T08:13:57.456Z,101186.91
2022-11-25T08:16:27.462Z,101189.41
2022-11-25T08:18:58.792Z,101200.00
2022-11-25T08:21:25.824Z,101190.06
2022-11-25T08:23:53.156Z,101197.78
2022-11-25T08:26:31.820Z,101202.19
2022-11-25T08:28:59.554Z,101193.50
2022-11-25T08:31:31.574Z,101208.50
2022-11-25T08:33:58.471Z,101200.38
2022-11-25T08:36:26.435Z,101201.06
2022-11-25T08:38:57.573Z,101207.94
2022-11-25T08:41:30.936Z,101206.06
2022-11-25T08:43:59.814Z,101202.34
2022-11-25T08:46:29.564Z,101200.31
2022-11-25T08:48:56.578Z,101206.34
2022-11-25T08:51:28.753Z,101212.41
2022-11-25T08:53:55.343Z,101212.03
2022-11-25T08:56:26.184Z,101209.34
2022-11-25T08:58:56.244Z,101214.56
2022-11-25T09:01:25.060Z,101216.06
2022-11-25T09:03:55.608Z,101216.69
2022-11-25T09:06:23.994Z,101220.06
2022-11-25T09:08:51.131Z,101221.75
2022-11-25T09:11:20.796Z,101232.34
2022-11-25T09:13:47.381Z,101227.56
2022-11-25T09:16:15.261Z,101226.38
2022-11-25T09:18:42.220Z,101224.53
2022-11-25T09:21:14.543Z,101224.31
2022-11-25T09:23:41.130Z,101234.94
2022-11-25T09:26:08.339Z,101241.00
2022-11-25T09:28:36.918Z,101242.50
2022-11-25T09:31:08.048Z,101238.59
2022-11-25T09:33:34.827Z,101241.09
2022-11-25T09:36:02.861Z,101248.81
2022-11-25T09:38:29.630Z,101248.44
2022-11-25T09:41:13.626Z,101250.75
2022-11-25T09:44:20.760Z,101251.22
2022-11-25T09:46:51.345Z,101251.69
2022-11-25T09:49:26.605Z,101253.38
2022-11-25T09:52:14.483Z,101253.00
2022-11-25T09:54:55.728Z,101255.31
2022-11-25T09:57:35.215Z,101256.63
2022-11-25T10:00:12.930Z,101259.59
2022-11-25T10:03:17.098Z,101260.22
2022-11-25T10:06:02.178Z,101256.13
2022-11-25T10:08:35.459Z,101262.19
2022-11-25T10:11:14.611Z,101258.06
2022-11-25T10:13:57.213Z,101265.63
2022-11-25T10:16:26.893Z,101270.84
2022-11-25T10:19:00.835Z,101265.03
2022-11-25T10:21:28.374Z,101267.56
2022-11-25T10:23:55.314Z,101266.34
2022-11-25T10:26:27.284Z,101268.84
2022-11-25T10:28:57.473Z,101271.38
2022-11-25T10:31:36.873Z,101263.91
2022-11-25T10:34:33.402Z,101270.41
2022-11-25T10:37:02.469Z,101266.28
2022-11-25T10:39:31.775Z,101273.19
2022-11-25T10:42:08.276Z,101274.47
2022-11-25T10:44:37.945Z,101274.31
2022-11-25T10:47:16.661Z,101269.50
2022-11-25T10:49:51.241Z,101272.69
2022-11-25T10:52:23.357Z,101263.16
2022-11-25T10:54:58.339Z,101269.22
2022-11-25T10:57:29.778Z,101274.22
2022-11-25T10:59:58.800Z,101273.84
2022-11-25T11:02:35.454Z,101280.56
2022-11-25T11:05:18.357Z,101275.75
2022-11-25T11:07:46.838Z,101279.31
2022-11-25T11:10:19.430Z,101284.34
2022-11-25T11:13:02.657Z,101288.94
2022-11-25T11:15:44.536Z,101281.63
2022-11-25T11:18:24.492Z,101277.53
2022-11-25T11:21:00.535Z,101289.44
2022-11-25T11:23:29.038Z,101279.44
2022-11-25T11:26:09.762Z,101290.72
2022-11-25T11:28:37.217Z,101280.53
2022-11-25T11:31:18.389Z,101285.34
2022-11-25T11:33:47.599Z,101288.94
2022-11-25T11:36:31.214Z,101289.53
2022-11-25T11:39:35.963Z,101285.44
2022-11-25T11:42:24.314Z,101285.03
2022-11-25T11:45:02.888Z,101294.19
2022-11-25T11:47:34.293Z,101293.81
2022-11-25T11:50:27.440Z,101299.28
2022-11-25T11:53:10.837Z,101297.66
2022-11-25T11:56:05.645Z,101302.28
2022-11-25T11:58:35.733Z,101312.34
2022-11-25T12:01:24.027Z,101308.84
2022-11-25T12:04:28.580Z,101307.84
2022-11-25T12:07:38.696Z,101315.03
2022-11-25T12:10:10.527Z,101325.47
2022-11-25T12:13:13.727Z,101322.16
2022-11-25T12:15:45.875Z,101322.22
2022-11-25T12:18:38.936Z,101327.88
2022-11-25T12:21:13.957Z,101323.47
2022-11-25T12:24:04.415Z,101321.41
2022-11-25T12:26:40.809Z,101324.38
2022-11-25T12:29:13.630Z,101334.81
2022-11-25T12:31:50.377Z,101331.06
2022-11-25T12:34:24.383Z,101329.16
2022-11-25T12:37:08.391Z,101332.31
2022-11-25T12:39:45.994Z,101324.63
2022-11-25T12:42:22.682Z,101324.22
2022-11-25T12:45:07.182Z,101326.56
2022-11-25T12:47:33.761Z,101331.56
2022-11-25T12:50:00.730Z,101335.75
2022-11-25T12:52:36.551Z,101335.34
2022-11-25T12:55:03.044Z,101340.59
2022-11-25T12:57:49.359Z,101348.50
2022-11-25T13:00:41.446Z,101341.84
2022-11-25T13:03:48.628Z,101344.56
2022-11-25T13:06:34.713Z,101346.41
2022-11-25T13:09:14.728Z,101349.78
2022-11-25T13:12:00.595Z,101355.19
2022-11-25T13:14:52.599Z,101358.94
2022-11-25T13:17:20.673Z,101357.91
2022-11-25T13:19:47.598Z,101348.94
2022-11-25T13:22:29.967Z,101353.31
2022-11-25T13:24:59.590Z,101359.59
2022-11-25T13:27:53.572Z,101371.28
2022-11-25T13:30:32.317Z,101368.34
2022-11-25T13:33:13.943Z,101368.78
2022-11-25T13:36:01.315Z,101360.44
2022-11-25T13:38:30.591Z,101373.63
2022-11-25T13:41:21.689Z,101371.53
2022-11-25T13:44:28.484Z,101368.00
2022-11-25T13:46:58.323Z,101375.78
2022-11-25T13:50:22.061Z,101382.66
2022-11-25T13:53:01.727Z,101392.28
2022-11-25T13:55:35.712Z,101392.69
2022-11-25T13:58:07.578Z,101394.38
2022-11-25T14:01:10.658Z,101396.69
2022-11-25T14:03:46.010Z,101401.47
2022-11-25T14:06:50.975Z,101407.34
2022-11-25T14:09:25.218Z,101409.03
2022-11-25T14:12:30.566Z,101410.69
2022-11-25T14:15:30.146Z,101411.53
2022-11-25T14:19:03.241Z,101417.78
2022-11-25T14:21:24.225Z,101421.53
2022-11-25T14:24:03.152Z,101428.25
2022-11-25T14:26:49.616Z,101428.06
2022-11-25T14:29:32.150Z,101432.69
2022-11-25T14:32:14.865Z,101435.00
2022-11-25T14:34:50.154Z,101430.81
2022-11-25T14:37:22.872Z,101437.53
2022-11-25T14:39:52.689Z,101441.91
2022-11-25T14:42:22.609Z,101442.56
2022-11-25T14:44:58.484Z,101444.69
2022-11-25T14:47:27.464Z,101439.25
2022-11-25T14:50:33.623Z,101441.56
2022-11-25T14:52:47.601Z,101450.13
2022-11-25T14:55:24.575Z,101451.59
2022-11-25T14:57:52.642Z,101453.91
2022-11-25T15:00:19.599Z,101462.06
2022-11-25T15:03:17.980Z,101462.69
2022-11-25T15:05:44.586Z,101460.78
2022-11-25T15:08:16.009Z,101463.13
2022-11-25T15:11:00.943Z,101467.31
2022-11-25T15:13:39.300Z,101468.53
2022-11-25T15:16:18.932Z,101461.00
2022-11-25T15:19:00.489Z,101466.22
2022-11-25T15:21:30.659Z,101470.19
2022-11-25T15:23:57.772Z,101472.69
2022-11-25T15:26:29.179Z,101476.25
2022-11-25T15:29:00.213Z,101472.31
2022-11-25T15:31:33.105Z,101489.63
2022-11-25T15:34:02.550Z,101482.31
2022-11-25T15:36:29.575Z,101493.38
2022-11-25T15:39:14.098Z,101492.53
2022-11-25T15:41:43.383Z,101491.47
2022-11-25T15:44:19.482Z,101486.91
2022-11-25T15:47:02.841Z,101492.13
2022-11-25T15:49:30.066Z,101495.03
2022-11-25T15:52:06.240Z,101499.22
2022-11-25T15:55:03.281Z,101510.47
2022-11-25T15:57:34.348Z,101506.50
2022-11-25T16:00:00.832Z,101513.41
2022-11-25T16:02:38.327Z,101522.22
2022-11-25T16:05:16.659Z,101517.81
2022-11-25T16:07:55.078Z,101529.69
2022-11-25T16:10:50.164Z,101527.78
2022-11-25T16:13:23.153Z,101533.63
2022-11-25T16:15:49.775Z,101539.25
2022-11-25T16:18:39.300Z,101536.13
2022-11-25T16:21:09.417Z,101546.16
2022-11-25T16:23:39.012Z,101544.47
2022-11-25T16:26:11.392Z,101543.81
2022-11-25T16:28:39.604Z,101554.47
2022-11-25T16:31:06.085Z,101555.72
2022-11-25T16:33:32.593Z,101553.88
2022-11-25T16:35:59.202Z,101562.84
2022-11-25T16:38:26.839Z,101559.13
2022-11-25T16:40:53.885Z,101564.19
2022-11-25T16:43:24.395Z,101570.47
2022-11-25T16:45:53.374Z,101567.59
2022-11-25T16:48:22.829Z,101567.63
2022-11-25T16:50:51.065Z,101572.25
2022-11-25T16:53:18.212Z,101583.16
2022-11-25T16:55:46.692Z,101579.44
2022-11-25T16:58:18.786Z,101584.06
2022-11-25T17:00:51.185Z,101585.13
2022-11-25T17:03:19.407Z,101595.38
2022-11-25T17:05:46.983Z,101598.31
2022-11-25T17:08:14.260Z,101598.53
2022-11-25T17:10:43.334Z,101598.53
2022-11-25T17:13:18.005Z,101599.78
2022-11-25T17:15:46.018Z,101596.63
2022-11-25T17:18:17.247Z,101600.00
2022-11-25T17:20:44.988Z,101602.94
2022-11-25T17:23:16.874Z,101604.19
2022-11-25T17:25:47.274Z,101614.66
2022-11-25T17:28:17.399Z,101611.09
2022-11-25T17:30:45.107Z,101615.91
2022-11-25T17:33:16.023Z,101621.53
2022-11-25T17:35:43.733Z,101613.81
2022-11-25T17:38:17.088Z,101626.38
2022-11-25T17:40:43.981Z,101624.25
2022-11-25T17:43:15.486Z,101636.19
2022-11-25T17:45:43.811Z,101632.84
2022-11-25T17:48:12.513Z,101638.50
2022-11-25T17:50:39.104Z,101641.22
2022-11-25T17:53:05.928Z,101646.44
2022-11-25T17:55:33.339Z,101657.75
2022-11-25T17:58:00.802Z,101655.41
2022-11-25T18:00:27.522Z,101666.28
2022-11-25T18:02:54.200Z,101658.13
2022-11-25T18:05:25.233Z,101661.91
2022-11-25T18:07:52.439Z,101666.28
2022-11-25T18:10:26.465Z,101658.56
2022-11-25T18:12:54.986Z,101668.78
2022-11-25T18:15:25.030Z,101670.88
2022-11-25T18:17:55.762Z,101671.50
2022-11-25T18:20:26.176Z,101675.25
2022-11-25T18:22:53.560Z,101672.72
2022-11-25T18:25:24.867Z,101683.59
2022-11-25T18:27:56.236Z,101685.66
2022-11-25T18:30:31.075Z,101689.25
2022-11-25T18:32:58.308Z,101694.91
2022-11-25T18:35:32.561Z,101698.66
2022-11-25T18:38:02.155Z,101701.97
2022-11-25T18:40:29.640Z,101704.69
2022-11-25T18:43:00.323Z,101704.69
2022-11-25T18:45:37.428Z,101709.91
2022-11-25T18:48:14.817Z,101705.31
2022-11-25T18:50:41.681Z,101717.88
2022-11-25T18:53:08.176Z,101719.75
2022-11-25T18:55:34.772Z,101720.78
2022-11-25T18:58:02.514Z,101723.72
2022-11-25T19:00:32.814Z,101731.47
2022-11-25T19:03:00.050Z,101736.72
2022-11-25T19:05:31.137Z,101736.72
2022-11-25T19:07:58.300Z,101740.47
2022-11-25T19:10:28.478Z,101744.22
2022-11-25T19:13:01.676Z,101758.44
2022-11-25T19:15:28.486Z,101754.47
2022-11-25T19:18:00.694Z,101752.13
2022-11-25T19:20:28.575Z,101759.66
2022-11-25T19:23:00.316Z,101762.56
2022-11-25T19:25:27.627Z,101763.41
2022-11-25T19:27:57.525Z,101768.44
2022-11-25T19:30:27.800Z,101773.88
2022-11-25T19:32:58.032Z,101775.34
2022-11-25T19:35:32.147Z,101772.19
2022-11-25T19:37:58.733Z,101786.84
2022-11-25T19:40:25.666Z,101785.16
2022-11-25T19:42:52.888Z,101795.00
2022-11-25T19:45:21.661Z,101797.72
2022-11-25T19:47:52.865Z,101794.13
2022-11-25T19:50:24.842Z,101802.69
2022-11-25T19:52:52.438Z,101805.16
2022-11-25T19:55:24.484Z,101818.50
2022-11-25T19:57:53.148Z,101816.22
2022-11-25T20:00:22.160Z,101818.94
2022-11-25T20:02:51.790Z,101819.34
2022-11-25T20:05:31.404Z,101821.41
2022-11-25T20:07:58.359Z,101836.03
2022-11-25T20:10:28.488Z,101837.06
2022-11-25T20:12:57.438Z,101831.25
2022-11-25T20:15:26.565Z,101838.56
2022-11-25T20:18:00.369Z,101846.91
2022-11-25T20:20:41.031Z,101836.47
2022-11-25T20:23:20.696Z,101850.72
2022-11-25T20:25:49.401Z,101852.59
2022-11-25T20:28:18.932Z,101855.50
2022-11-25T20:30:46.980Z,101862.38
2022-11-25T20:33:13.945Z,101860.09
2022-11-25T20:35:42.910Z,101863.28
2022-11-25T20:38:21.510Z,101865.13
2022-11-25T20:40:51.785Z,101873.28
2022-11-25T20:43:24.483Z,101887.94
2022-11-25T20:45:51.544Z,101872.19
2022-11-25T20:48:18.608Z,101877.38
2022-11-25T20:50:45.359Z,101879.44
2022-11-25T20:53:16.859Z,101894.50
2022-11-25T20:55:44.416Z,101899.78
2022-11-25T20:58:32.253Z,101894.09
2022-11-25T21:00:58.976Z,101899.88
2022-11-25T21:03:26.855Z,101905.78
2022-11-25T21:05:55.827Z,101911.34
2022-11-25T21:08:28.882Z,101916.53
2022-11-25T21:10:57.428Z,101918.44
2022-11-25T21:13:26.749Z,101918.84
2022-11-25T21:15:53.998Z,101924.69
2022-11-25T21:18:21.783Z,101927.41
2022-11-25T21:20:51.659Z,101940.31
2022-11-25T21:23:24.218Z,101934.41
2022-11-25T21:25:51.880Z,101950.34
2022-11-25T21:28:21.389Z,101946.91
2022-11-25T21:30:48.550Z,101962.66
2022-11-25T21:33:16.319Z,101957.59
2022-11-25T21:35:46.960Z,101963.81
2022-11-25T21:38:19.199Z,101961.25
2022-11-25T21:40:48.233Z,101970.00
2022-11-25T21:43:21.439Z,101968.69
2022-11-25T21:45:53.152Z,101968.22
2022-11-25T21:48:25.457Z,101968.97
2022-11-25T21:50:52.867Z,101969.72
2022-11-25T21:53:19.916Z,101977.09
2022-11-25T21:55:47.459Z,101981.81
2022-11-25T21:58:25.622Z,101984.78
2022-11-25T22:00:55.878Z,101980.09
2022-11-25T22:03:25.015Z,101988.13
2022-11-25T22:05:52.324Z,101984.47
2022-11-25T22:08:18.980Z,101985.56
2022-11-25T22:10:49.313Z,101988.00
2022-11-25T22:13:20.438Z,101990.97
2022-11-25T22:15:49.943Z,101997.75
2022-11-25T22:18:41.506Z,101995.63
2022-11-25T22:21:11.985Z,102004.16
2022-11-25T22:23:38.562Z,101992.34
2022-11-25T22:26:05.625Z,102002.03
2022-11-25T22:28:32.310Z,102009.19
2022-11-25T22:31:02.608Z,102007.22
2022-11-25T22:33:32.144Z,102007.25
2022-11-25T22:35:58.857Z,102008.81
2022-11-25T22:38:26.903Z,102011.22
2022-11-25T22:40:58.352Z,102018.16
2022-11-25T22:43:29.737Z,102024.31
2022-11-25T22:45:57.349Z,102015.56
2022-11-25T22:48:32.275Z,102017.28
2022-11-25T22:50:59.070Z,102007.13
2022-11-25T22:53:26.213Z,102021.19
2022-11-25T22:55:56.858Z,102025.13
2022-11-25T22:58:24.623Z,102027.50
2022-11-25T23:00:52.432Z,102033.59
2022-11-25T23:03:26.608Z,102043.44
2022-11-25T23:05:54.403Z,102047.66
2022-11-25T23:08:25.686Z,102049.38
2022-11-25T23:10:52.857Z,102049.72
2022-11-25T23:13:20.573Z,102053.78
2022-11-25T23:15:53.684Z,102063.56
2022-11-25T23:18:26.373Z,102065.28
2022-11-25T23:20:53.066Z,102064.78
2022-11-25T23:23:23.183Z,102065.78
2022-11-25T23:25:49.951Z,102073.41
2022-11-25T23:28:17.232Z,102076.94
2022-11-25T23:30:50.202Z,102068.50
2022-11-25T23:33:37.896Z,102074.22
2022-11-25T23:36:09.048Z,102073.88
2022-11-25T23:38:43.977Z,102082.97
2022-11-25T23:41:24.181Z,102082.47
2022-11-25T23:43:51.571Z,102082.97
2022-11-25T23:46:21.527Z,102088.03
2022-11-25T23:48:56.605Z,102095.94
2022-11-25T23:51:24.614Z,102100.53
2022-11-25T23:53:51.736Z,102104.56
2022-11-25T23:56:19.164Z,102116.03
2022-11-25T23:58:45.792Z,102112.47
